Time;durP1;ratioP1;P1;durP2;ratioP2;P2;SDS_P1;SDS_P2;PMS_P1;PMS_P2;Temp;Humidity;BMP_temperature;BMP_pressure;BME280_temperature;BME280_humidity;BME280_pressure;Samples;Min_cycle;Max_cycle;Signal;HPM_P1;HPM_P2
2020/12/09 00:04:14;;;;;;;16.88;11.88;;;;;;;-144.15;0.00;65763.66;10358040;28;20044;-68
2020/12/09 00:09:13;;;;;;;16.70;10.65;;;;;;;-144.15;0.00;65763.66;10357556;28;20075;-68
2020/12/09 00:14:12;;;;;;;19.23;12.45;;;;;;;-144.15;0.00;65763.66;10357761;28;20074;-68
2020/12/09 00:19:10;;;;;;;18.42;10.95;;;;;;;-144.15;0.00;65763.66;10357874;28;20403;-69
2020/12/09 00:24:08;;;;;;;30.10;17.17;;;;;;;-144.15;0.00;65763.66;10357707;28;20048;-69
2020/12/09 00:29:07;;;;;;;18.23;10.85;;;;;;;-144.15;0.00;65763.66;10357778;28;20082;-68
2020/12/09 00:34:05;;;;;;;19.25;11.88;;;;;;;-144.15;0.00;65763.66;10357628;28;20048;-69
2020/12/09 00:39:03;;;;;;;14.13;9.30;;;;;;;-144.15;0.00;65763.66;10357064;28;20036;-69
2020/12/09 00:44:02;;;;;;;15.52;9.50;;;;;;;-144.15;0.00;65763.66;10356961;28;20454;-69
2020/12/09 00:48:59;;;;;;;14.90;9.48;;;;;;;-144.15;0.00;65763.66;10356317;28;20048;-69
2020/12/09 00:54:00;;;;;;;18.95;8.85;;;;;;;-144.15;0.00;65763.66;10356905;28;20044;-69
2020/12/09 00:59:03;;;;;;;17.98;10.25;;;;;;;-144.15;0.00;65763.66;10355431;28;20067;-69
2020/12/09 01:04:04;;;;;;;10.68;7.15;;;;;;;-144.15;0.00;65763.66;10355187;28;20052;-69
2020/12/09 01:09:05;;;;;;;12.45;8.32;;;;;;;-144.15;0.00;65763.66;10356791;28;20079;-69
2020/12/09 01:14:03;;;;;;;13.35;8.25;;;;;;;-144.15;0.00;65763.66;10356910;28;20075;-67
2020/12/09 01:19:01;;;;;;;13.07;9.48;;;;;;;-144.15;0.00;65763.66;10360039;28;20047;-67
2020/12/09 01:23:59;;;;;;;18.85;12.13;;;;;;;-144.15;0.00;65763.66;10364054;28;20513;-66
2020/12/09 01:28:57;;;;;;;58.80;27.60;;;;;;;-144.15;0.00;65763.66;10363947;28;20079;-69
2020/12/09 01:33:56;;;;;;;25.10;13.57;;;;;;;-144.15;0.00;65763.66;10364177;28;20071;-67
2020/12/09 01:38:54;;;;;;;14.70;8.13;;;;;;;-144.15;0.00;65763.66;10363577;28;20044;-67
2020/12/09 01:43:52;;;;;;;41.78;18.45;;;;;;;-144.15;0.00;65763.66;10363122;28;20631;-67
2020/12/09 01:48:50;;;;;;;13.35;7.78;;;;;;;-144.15;0.00;65763.66;10362585;28;20092;-67
2020/12/09 01:53:49;;;;;;;39.75;17.83;;;;;;;-144.15;0.00;65763.66;10363284;28;20063;-67
2020/12/09 01:58:49;;;;;;;17.02;9.35;;;;;;;-144.15;0.00;65763.66;10363077;28;20080;-67
2020/12/09 02:03:48;;;;;;;16.67;9.38;;;;;;;-144.15;0.00;65763.66;10362880;28;20075;-67
2020/12/09 02:08:46;;;;;;;20.77;11.65;;;;;;;-144.15;0.00;65763.66;10363072;28;20090;-67
2020/12/09 02:13:47;;;;;;;21.77;10.63;;;;;;;-144.15;0.00;65763.66;10362460;28;20044;-67
2020/12/09 02:18:45;;;;;;;16.05;9.80;;;;;;;-144.15;0.00;65763.66;10361940;28;20425;-67
2020/12/09 02:23:44;;;;;;;19.70;12.52;;;;;;;-144.15;0.00;65763.66;10362232;28;20048;-68
2020/12/09 02:28:41;;;;;;;18.33;11.02;;;;;;;-144.15;0.00;65763.66;10361023;28;20083;-68
2020/12/09 02:33:39;;;;;;;18.42;11.30;;;;;;;-144.15;0.00;65763.66;10361259;28;20048;-68
2020/12/09 02:38:37;;;;;;;18.08;11.57;;;;;;;-144.15;0.00;65763.66;10361611;28;20048;-68
2020/12/09 02:43:36;;;;;;;13.77;8.88;;;;;;;-144.15;0.00;65763.66;10361974;28;20048;-68
2020/12/09 02:48:33;;;;;;;13.10;9.27;;;;;;;-144.15;0.00;65763.66;10361795;28;20083;-68
2020/12/09 02:53:31;;;;;;;14.07;9.38;;;;;;;-144.15;0.00;65763.66;10361775;28;20043;-67
2020/12/09 02:58:29;;;;;;;18.55;10.88;;;;;;;-144.15;0.00;65763.66;10359632;28;20056;-68
2020/12/09 03:03:28;;;;;;;16.75;9.82;;;;;;;-144.15;0.00;65763.66;10359440;28;20048;-68
2020/12/09 03:08:25;;;;;;;14.95;9.52;;;;;;;-144.15;0.00;65763.66;10359916;28;20043;-68
2020/12/09 03:13:23;;;;;;;17.30;9.73;;;;;;;-144.15;0.00;65763.66;10360956;28;20489;-68
2020/12/09 03:18:21;;;;;;;13.10;9.68;;;;;;;-144.15;0.00;65763.66;10360733;28;20048;-68
2020/12/09 03:23:19;;;;;;;13.20;9.30;;;;;;;-144.15;0.00;65763.66;10359439;28;20583;-68
2020/12/09 03:28:17;;;;;;;14.88;9.73;;;;;;;-144.15;0.00;65763.66;10360271;28;20044;-68
2020/12/09 03:33:15;;;;;;;14.68;8.70;;;;;;;-144.15;0.00;65763.66;10360062;28;20044;-68
2020/12/09 03:38:13;;;;;;;11.40;8.63;;;;;;;-144.15;0.00;65763.66;10358927;28;20067;-68
2020/12/09 03:43:11;;;;;;;11.15;7.85;;;;;;;-144.15;0.00;65763.66;10359286;28;20079;-68
2020/12/09 03:48:10;;;;;;;11.05;8.88;;;;;;;-144.15;0.00;65763.66;10357576;28;20048;-68
2020/12/09 03:53:07;;;;;;;11.73;9.05;;;;;;;-144.15;0.00;65763.66;10359495;28;20460;-68
2020/12/09 03:58:05;;;;;;;11.18;8.65;;;;;;;-144.15;0.00;65763.66;10359003;28;20040;-68
2020/12/09 04:03:04;;;;;;;10.55;8.07;;;;;;;-144.15;0.00;65763.66;10358639;28;20436;-68
2020/12/09 04:08:01;;;;;;;8.50;6.43;;;;;;;-144.15;0.00;65763.66;10358414;28;20374;-68
2020/12/09 04:12:59;;;;;;;12.45;8.43;;;;;;;-144.15;0.00;65763.66;10357260;28;20071;-68
2020/12/09 04:17:57;;;;;;;12.07;7.53;;;;;;;-144.15;0.00;65763.66;10358404;28;20044;-68
2020/12/09 04:22:56;;;;;;;15.30;9.23;;;;;;;-144.15;0.00;65763.66;10356946;28;20087;-68
2020/12/09 04:27:53;;;;;;;10.77;7.88;;;;;;;-144.15;0.00;65763.66;10357160;28;20536;-68
2020/12/09 04:32:51;;;;;;;10.27;7.13;;;;;;;-144.15;0.00;65763.66;10358051;28;20090;-68
2020/12/09 04:37:55;;;;;;;12.43;9.18;;;;;;;-144.15;0.00;65763.66;10351641;28;20049;-68
2020/12/09 04:42:58;;;;;;;11.60;8.05;;;;;;;-144.15;0.00;65763.66;10339664;28;20068;-67
2020/12/09 04:48:06;;;;;;;14.30;8.80;;;;;;;-144.15;0.00;65763.66;10346645;28;20091;-68
2020/12/09 04:53:11;;;;;;;12.95;8.85;;;;;;;-144.15;0.00;65763.66;10353276;28;20076;-68
2020/12/09 04:58:17;;;;;;;12.37;9.57;;;;;;;-144.15;0.00;65763.66;10334682;28;20548;-68
2020/12/09 05:03:16;;;;;;;15.55;10.13;;;;;;;-144.15;0.00;65763.66;10324201;28;20044;-68
2020/12/09 05:08:20;;;;;;;21.45;12.73;;;;;;;-144.15;0.00;65763.66;10323602;28;20076;-69
2020/12/09 05:13:24;;;;;;;18.58;13.73;;;;;;;-144.15;0.00;65763.66;10323855;28;20080;-68
2020/12/09 05:18:37;;;;;;;13.20;10.07;;;;;;;-144.15;0.00;65763.66;10322094;28;20060;-68
2020/12/09 05:23:40;;;;;;;14.02;9.45;;;;;;;-144.15;0.00;65763.66;10323560;28;20056;-68
2020/12/09 05:28:39;;;;;;;65.70;29.67;;;;;;;-144.15;0.00;65763.66;10323095;28;20493;-68
2020/12/09 05:33:37;;;;;;;16.40;11.98;;;;;;;-144.15;0.00;65763.66;10329923;28;20340;-68
2020/12/09 05:38:34;;;;;;;20.17;10.93;;;;;;;-144.15;0.00;65763.66;10352975;28;20533;-68
2020/12/09 05:43:32;;;;;;;16.23;11.20;;;;;;;-144.15;0.00;65763.66;10322448;28;20458;-68
2020/12/09 05:48:32;;;;;;;18.38;11.35;;;;;;;-144.15;0.00;65763.66;10321208;28;20501;-68
2020/12/09 05:53:31;;;;;;;20.90;12.45;;;;;;;-144.15;0.00;65763.66;10321258;28;20510;-68
2020/12/09 05:58:29;;;;;;;35.25;22.15;;;;;;;-144.15;0.00;65763.66;10321564;28;20057;-68
2020/12/09 06:03:27;;;;;;;41.65;24.65;;;;;;;-144.15;0.00;65763.66;10321549;28;20413;-68
2020/12/09 06:08:37;;;;;;;22.05;11.45;;;;;;;-144.15;0.00;65763.66;10317021;28;20552;-68
2020/12/09 06:13:36;;;;;;;25.75;15.35;;;;;;;-144.15;0.00;65763.66;10317031;28;20528;-68
2020/12/09 06:18:35;;;;;;;44.42;23.45;;;;;;;-144.15;0.00;65763.66;10316941;28;20470;-68
2020/12/09 06:23:33;;;;;;;28.88;16.85;;;;;;;-144.15;0.00;65763.66;10319871;28;20509;-68
2020/12/09 06:28:34;;;;;;;38.30;21.15;;;;;;;-144.15;0.00;65763.66;10319076;28;20053;-68
2020/12/09 06:33:35;;;;;;;43.63;22.38;;;;;;;-144.15;0.00;65763.66;10328498;28;20483;-68
2020/12/09 06:38:34;;;;;;;21.23;14.63;;;;;;;-144.15;0.00;65763.66;10350552;28;20154;-68
2020/12/09 06:43:33;;;;;;;27.55;18.10;;;;;;;-144.15;0.00;65763.66;10320366;28;20524;-68
2020/12/09 06:48:38;;;;;;;22.08;15.40;;;;;;;-144.15;0.00;65763.66;10319797;28;20060;-68
2020/12/09 06:53:36;;;;;;;;;;;;;;;-144.15;0.00;65763.66;10313586;28;20075;-69
2020/12/09 06:58:34;;;;;;;39.00;25.90;;;;;;;-144.15;0.00;65763.66;10342893;28;19963;-68
2020/12/09 07:03:36;;;;;;;77.63;46.50;;;;;;;-144.15;0.00;65763.66;10352959;28;20473;-69
2020/12/09 07:08:44;;;;;;;37.95;28.63;;;;;;;-144.15;0.00;65763.66;10350179;28;20510;-69
2020/12/09 07:13:43;;;;;;;32.08;24.55;;;;;;;-144.15;0.00;65763.66;10329687;28;20072;-69
2020/12/09 07:18:41;;;;;;;53.53;30.92;;;;;;;-144.15;0.00;65763.66;10317885;28;20098;-69
2020/12/09 07:23:39;;;;;;;29.00;20.27;;;;;;;-144.15;0.00;65763.66;10318593;28;20071;-69
2020/12/09 07:28:38;;;;;;;29.23;16.42;;;;;;;-144.15;0.00;65763.66;10316995;28;20497;-68
2020/12/09 07:33:37;;;;;;;27.77;16.75;;;;;;;-144.15;0.00;65763.66;10318121;28;20072;-68
2020/12/09 07:38:35;;;;;;;30.40;18.50;;;;;;;-144.15;0.00;65763.66;10318005;28;20505;-69
2020/12/09 07:43:33;;;;;;;39.38;22.17;;;;;;;-144.15;0.00;65763.66;10315571;28;20051;-69
2020/12/09 07:48:33;;;;;;;26.25;15.15;;;;;;;-144.15;0.00;65763.66;10325010;28;20071;-69
2020/12/09 07:53:32;;;;;;;65.30;37.60;;;;;;;-144.15;0.00;65763.66;10349170;28;20472;-67
2020/12/09 07:58:29;;;;;;;79.35;46.22;;;;;;;-144.15;0.00;65763.66;10315975;28;20087;-69
2020/12/09 08:03:31;;;;;;;225.52;133.20;;;;;;;-144.15;0.00;65763.66;10317358;28;20069;-68
2020/12/09 08:08:29;;;;;;;86.22;48.67;;;;;;;-144.15;0.00;65763.66;10316611;28;20068;-67
2020/12/09 08:13:28;;;;;;;64.03;36.83;;;;;;;-144.15;0.00;65763.66;10316549;28;20079;-68
2020/12/09 08:18:26;;;;;;;76.57;42.83;;;;;;;-144.15;0.00;65763.66;10316419;28;20044;-68
2020/12/09 08:23:39;;;;;;;57.25;34.30;;;;;;;-144.15;0.00;65763.66;10315352;28;20059;-70
2020/12/09 08:28:38;;;;;;;209.63;115.80;;;;;;;-144.15;0.00;65763.66;10315548;28;20072;-69
2020/12/09 08:33:38;;;;;;;285.58;166.30;;;;;;;-144.15;0.00;65763.66;10322833;28;20059;-69
2020/12/09 08:38:40;;;;;;;87.80;40.25;;;;;;;-144.15;0.00;65763.66;10321118;28;20041;-67
2020/12/09 08:43:49;;;;;;;149.93;98.45;;;;;;;-144.15;0.00;65763.66;10315087;28;20425;-67
2020/12/09 08:48:47;;;;;;;89.57;60.58;;;;;;;-144.15;0.00;65763.66;10324980;28;20071;-67
2020/12/09 08:53:45;;;;;;;403.20;248.38;;;;;;;-144.15;0.00;65763.66;10345146;28;20525;-67
2020/12/09 08:58:43;;;;;;;87.63;62.97;;;;;;;-144.15;0.00;65763.66;10317514;28;20072;-68
2020/12/09 09:03:42;;;;;;;47.13;29.10;;;;;;;-144.15;0.00;65763.66;10330550;28;20079;-68
2020/12/09 09:08:40;;;;;;;47.63;31.52;;;;;;;-144.15;0.00;65763.66;10315439;28;20497;-68
2020/12/09 09:13:38;;;;;;;35.28;23.77;;;;;;;-144.15;0.00;65763.66;10315691;28;20080;-69
2020/12/09 09:18:36;;;;;;;34.35;23.35;;;;;;;-144.15;0.00;65763.66;10315639;28;20433;-68
2020/12/09 09:23:35;;;;;;;33.92;21.40;;;;;;;-144.15;0.00;65763.66;10315675;28;20080;-66
2020/12/09 09:28:41;;;;;;;33.53;20.35;;;;;;;-144.15;0.00;65763.66;10314099;28;20048;-66
2020/12/09 09:33:39;;;;;;;47.63;28.45;;;;;;;-144.15;0.00;65763.66;10315292;28;20080;-66
2020/12/09 09:38:38;;;;;;;51.45;32.55;;;;;;;-144.15;0.00;65763.66;10315313;28;20095;-66
2020/12/09 09:43:35;;;;;;;41.08;24.83;;;;;;;-144.15;0.00;65763.66;10322460;28;20540;-67
2020/12/09 09:48:33;;;;;;;47.28;26.63;;;;;;;-144.15;0.00;65763.66;10330302;28;20058;-68
2020/12/09 09:53:31;;;;;;;48.72;30.92;;;;;;;-144.15;0.00;65763.66;10353551;28;20083;-67
2020/12/09 09:58:30;;;;;;;39.75;24.50;;;;;;;-144.15;0.00;65763.66;10321747;28;20086;-67
2020/12/09 10:03:27;;;;;;;37.63;22.65;;;;;;;-144.15;0.00;65763.66;10321463;28;20072;-68
2020/12/09 10:08:25;;;;;;;37.05;24.00;;;;;;;-144.15;0.00;65763.66;10321691;28;20040;-68
2020/12/09 10:13:23;;;;;;;37.40;25.10;;;;;;;-144.15;0.00;65763.66;10335674;28;20068;-67
2020/12/09 10:18:21;;;;;;;40.15;24.25;;;;;;;-144.15;0.00;65763.66;10342528;28;20055;-68
2020/12/09 10:23:20;;;;;;;41.30;25.42;;;;;;;-144.15;0.00;65763.66;10320672;28;20083;-68
2020/12/09 10:28:17;;;;;;;49.67;28.40;;;;;;;-144.15;0.00;65763.66;10319689;28;20045;-68
2020/12/09 10:33:15;;;;;;;56.90;37.35;;;;;;;-144.15;0.00;65763.66;10320084;28;20110;-68
2020/12/09 10:38:14;;;;;;;46.30;27.83;;;;;;;-144.15;0.00;65763.66;10320129;28;20069;-67
2020/12/09 10:43:13;;;;;;;53.28;34.33;;;;;;;-144.15;0.00;65763.66;10334357;28;20068;-67
2020/12/09 10:48:30;;;;;;;41.95;25.60;;;;;;;-144.15;0.00;65763.66;10327549;28;20052;-67
2020/12/09 10:53:28;;;;;;;57.38;34.28;;;;;;;-144.15;0.00;65763.66;10349928;28;20072;-67
2020/12/09 10:58:27;;;;;;;82.80;43.38;;;;;;;-144.15;0.00;65763.66;10319312;28;20056;-67
2020/12/09 11:03:25;;;;;;;73.28;40.53;;;;;;;-144.15;0.00;65763.66;10317957;28;20075;-67
2020/12/09 11:08:23;;;;;;;113.05;65.53;;;;;;;-144.15;0.00;65763.66;10319355;28;20068;-68
2020/12/09 11:13:21;;;;;;;61.08;35.08;;;;;;;-144.15;0.00;65763.66;10318700;28;20080;-67
2020/12/09 11:18:19;;;;;;;67.47;38.40;;;;;;;-144.15;0.00;65763.66;10318729;28;20079;-67
2020/12/09 11:23:17;;;;;;;51.50;29.92;;;;;;;-144.15;0.00;65763.66;10316130;28;20070;-66
2020/12/09 11:28:15;;;;;;;46.10;28.13;;;;;;;-144.15;0.00;65763.66;10318525;28;20072;-67
2020/12/09 11:33:26;;;;;;;67.75;43.15;;;;;;;-144.15;0.00;65763.66;10317287;28;20564;-67
2020/12/09 11:38:24;;;;;;;60.60;34.08;;;;;;;-144.15;0.00;65763.66;10317438;28;20040;-67
2020/12/09 11:43:24;;;;;;;54.70;30.98;;;;;;;-144.15;0.00;65763.66;10317408;28;20068;-68
2020/12/09 11:48:22;;;;;;;59.15;33.05;;;;;;;-144.15;0.00;65763.66;10323775;28;20070;-69
2020/12/09 11:53:20;;;;;;;52.45;32.38;;;;;;;-144.15;0.00;65763.66;10350052;28;20087;-69
2020/12/09 11:58:18;;;;;;;55.22;28.85;;;;;;;-144.15;0.00;65763.66;10317152;28;20073;-69
2020/12/09 12:03:16;;;;;;;63.53;37.20;;;;;;;-144.15;0.00;65763.66;10316833;28;20083;-68
2020/12/09 12:08:13;;;;;;;65.47;36.53;;;;;;;-144.15;0.00;65763.66;10333128;28;20040;-68
2020/12/09 12:13:12;;;;;;;58.85;33.22;;;;;;;-144.15;0.00;65763.66;10320533;28;20071;-68
2020/12/09 12:18:10;;;;;;;52.50;31.73;;;;;;;-144.15;0.00;65763.66;10316898;28;20468;-68
2020/12/09 12:23:07;;;;;;;56.38;30.02;;;;;;;-144.15;0.00;65763.66;10328420;28;20051;-68
2020/12/09 12:28:05;;;;;;;60.65;32.58;;;;;;;-144.15;0.00;65763.66;10315513;28;20043;-68
2020/12/09 12:33:04;;;;;;;55.80;31.55;;;;;;;-144.15;0.00;65763.66;10321236;28;20072;-68
2020/12/09 12:38:02;;;;;;;71.53;42.50;;;;;;;-144.15;0.00;65763.66;10316514;28;20047;-68
2020/12/09 12:43:00;;;;;;;53.30;31.50;;;;;;;-144.15;0.00;65763.66;10315863;28;20449;-68
2020/12/09 12:47:58;;;;;;;64.25;34.42;;;;;;;-144.15;0.00;65763.66;10321646;28;20071;-68
2020/12/09 12:52:56;;;;;;;82.50;46.90;;;;;;;-144.15;0.00;65763.66;10333588;28;20075;-67
2020/12/09 12:57:54;;;;;;;101.70;52.92;;;;;;;-144.15;0.00;65763.66;10334230;28;20493;-68
2020/12/09 13:02:52;;;;;;;74.18;41.33;;;;;;;-144.15;0.00;65763.66;10337951;28;20083;-69
2020/12/09 13:07:49;;;;;;;83.20;45.72;;;;;;;-144.15;0.00;65763.66;10340765;28;20068;-69
2020/12/09 13:12:48;;;;;;;97.28;58.53;;;;;;;-144.15;0.00;65763.66;10331475;28;20091;-68
2020/12/09 13:17:46;;;;;;;90.95;53.00;;;;;;;-144.15;0.00;65763.66;10338140;28;20511;-68
2020/12/09 13:22:44;;;;;;;79.55;42.70;;;;;;;-144.15;0.00;65763.66;10342530;28;20080;-68
2020/12/09 13:27:42;;;;;;;78.70;41.40;;;;;;;-144.15;0.00;65763.66;10341808;28;20067;-68
2020/12/09 13:32:41;;;;;;;76.00;38.45;;;;;;;-144.15;0.00;65763.66;10340438;28;20075;-68
2020/12/09 13:37:40;;;;;;;74.30;36.40;;;;;;;-144.15;0.00;65763.66;10341234;28;20304;-68
2020/12/09 13:42:38;;;;;;;67.93;34.78;;;;;;;-144.15;0.00;65763.66;10341039;28;20100;-69
2020/12/09 13:47:37;;;;;;;76.72;40.50;;;;;;;-144.15;0.00;65763.66;10341152;28;20406;-69
2020/12/09 13:52:36;;;;;;;74.53;39.70;;;;;;;-144.15;0.00;65763.66;10336814;28;20076;-69
2020/12/09 13:57:34;;;;;;;67.13;37.50;;;;;;;-144.15;0.00;65763.66;10334053;28;20536;-69
2020/12/09 14:02:32;;;;;;;64.35;34.17;;;;;;;-144.15;0.00;65763.66;10338861;28;20079;-68
2020/12/09 14:07:31;;;;;;;70.00;34.72;;;;;;;-144.15;0.00;65763.66;10321511;28;20496;-69
2020/12/09 14:12:29;;;;;;;67.82;34.92;;;;;;;-144.15;0.00;65763.66;10320655;28;20100;-69
2020/12/09 14:17:27;;;;;;;60.80;33.45;;;;;;;-144.15;0.00;65763.66;10321118;28;20560;-69
2020/12/09 14:22:25;;;;;;;75.88;37.30;;;;;;;-144.15;0.00;65763.66;10320948;28;20510;-69
2020/12/09 14:27:25;;;;;;;84.35;42.22;;;;;;;-144.15;0.00;65763.66;10321207;28;20080;-69
2020/12/09 14:32:23;;;;;;;62.08;34.83;;;;;;;-144.15;0.00;65763.66;10319814;28;20071;-69
2020/12/09 14:37:21;;;;;;;84.03;44.78;;;;;;;-144.15;0.00;65763.66;10319441;28;20072;-68
2020/12/09 14:42:26;;;;;;;62.30;37.47;;;;;;;-144.15;0.00;65763.66;10320131;28;20520;-68
2020/12/09 14:47:25;;;;;;;48.60;27.38;;;;;;;-144.15;0.00;65763.66;10320063;28;20097;-69
2020/12/09 14:52:23;;;;;;;43.40;25.88;;;;;;;-144.15;0.00;65763.66;10356340;28;20064;-69
2020/12/09 14:57:21;;;;;;;52.22;29.15;;;;;;;-144.15;0.00;65763.66;10315433;28;20064;-68
2020/12/09 15:02:18;;;;;;;56.63;33.38;;;;;;;-144.15;0.00;65763.66;10314789;28;20068;-68
2020/12/09 15:07:17;;;;;;;68.32;39.22;;;;;;;-144.15;0.00;65763.66;10318004;28;20068;-68
2020/12/09 15:12:15;;;;;;;47.92;28.75;;;;;;;-144.15;0.00;65763.66;10357357;28;20516;-67
2020/12/09 15:17:13;;;;;;;46.35;27.77;;;;;;;-144.15;0.00;65763.66;10358580;28;20063;-67
2020/12/09 15:22:11;;;;;;;47.00;28.30;;;;;;;-144.15;0.00;65763.66;10318810;28;20522;-67
2020/12/09 15:27:09;;;;;;;50.63;32.65;;;;;;;-144.15;0.00;65763.66;10338709;28;20059;-68
2020/12/09 15:32:07;;;;;;;46.70;28.70;;;;;;;-144.15;0.00;65763.66;10344636;28;20161;-67
2020/12/09 15:37:05;;;;;;;40.58;25.77;;;;;;;-144.15;0.00;65763.66;10318329;28;20041;-66
2020/12/09 15:42:02;;;;;;;36.20;25.63;;;;;;;-144.15;0.00;65763.66;10353810;28;20083;-68
2020/12/09 15:47:02;;;;;;;39.40;24.60;;;;;;;-144.15;0.00;65763.66;10352773;28;20336;-67
2020/12/09 15:52:00;;;;;;;44.20;29.08;;;;;;;-144.15;0.00;65763.66;10356865;28;20079;-67
2020/12/09 15:56:58;;;;;;;37.08;23.95;;;;;;;-144.15;0.00;65763.66;10357603;28;20036;-67
2020/12/09 16:01:55;;;;;;;36.88;21.38;;;;;;;-144.15;0.00;65763.66;10358865;28;20060;-66
2020/12/09 16:06:54;;;;;;;35.08;25.10;;;;;;;-144.15;0.00;65763.66;10358740;28;20044;-67
2020/12/09 16:11:52;;;;;;;42.47;28.88;;;;;;;-144.15;0.00;65763.66;10357995;28;20508;-65
2020/12/09 16:16:53;;;;;;;50.08;30.60;;;;;;;-144.15;0.00;65763.66;10358265;28;20091;-64
2020/12/09 16:21:51;;;;;;;41.05;28.67;;;;;;;-144.15;0.00;65763.66;10358190;28;20076;-65
2020/12/09 16:26:53;;;;;;;47.47;31.90;;;;;;;-144.15;0.00;65763.66;10357147;28;20087;-66
2020/12/09 16:31:51;;;;;;;54.95;34.05;;;;;;;-144.15;0.00;65763.66;10332532;28;20088;-66
2020/12/09 16:36:50;;;;;;;49.67;31.85;;;;;;;-144.15;0.00;65763.66;10327105;28;20573;-66
2020/12/09 16:41:50;;;;;;;39.80;28.13;;;;;;;-144.15;0.00;65763.66;10328540;28;20083;-66
2020/12/09 16:46:51;;;;;;;62.88;33.58;;;;;;;-144.15;0.00;65763.66;10315140;28;20394;-66
2020/12/09 16:51:49;;;;;;;58.45;34.58;;;;;;;-144.15;0.00;65763.66;10354749;28;20457;-64
2020/12/09 16:56:47;;;;;;;52.22;29.20;;;;;;;-144.15;0.00;65763.66;10365119;28;20090;-66
2020/12/09 17:01:49;;;;;;;59.08;31.00;;;;;;;-144.15;0.00;65763.66;10364557;28;20102;-67
2020/12/09 17:06:50;;;;;;;67.78;38.20;;;;;;;-144.15;0.00;65763.66;10365171;28;20044;-66
2020/12/09 17:11:51;;;;;;;74.45;38.72;;;;;;;-144.15;0.00;65763.66;10363926;28;20063;-67
2020/12/09 17:16:53;;;;;;;57.45;37.80;;;;;;;-144.15;0.00;65763.66;10362712;28;20076;-68
2020/12/09 17:21:51;;;;;;;69.80;47.20;;;;;;;-144.15;0.00;65763.66;10361863;28;20067;-66
2020/12/09 17:26:50;;;;;;;64.30;40.78;;;;;;;-144.15;0.00;65763.66;10360343;28;20493;-67
2020/12/09 17:31:48;;;;;;;45.92;31.00;;;;;;;-144.15;0.00;65763.66;10359783;28;20063;-67
2020/12/09 17:36:47;;;;;;;59.13;35.22;;;;;;;-144.15;0.00;65763.66;10359655;28;20473;-68
2020/12/09 17:41:45;;;;;;;59.78;37.92;;;;;;;-144.15;0.00;65763.66;10364503;28;20051;-68
2020/12/09 17:46:42;;;;;;;45.33;26.42;;;;;;;-144.15;0.00;65763.66;10363401;28;20517;-68
2020/12/09 17:51:40;;;;;;;45.03;26.77;;;;;;;-144.15;0.00;65763.66;10363622;28;20421;-66
2020/12/09 17:56:39;;;;;;;51.55;26.63;;;;;;;-144.15;0.00;65763.66;10363393;28;20480;-67
2020/12/09 18:01:37;;;;;;;61.05;32.83;;;;;;;-144.15;0.00;65763.66;10362547;28;20087;-67
2020/12/09 18:06:42;;;;;;;51.03;28.30;;;;;;;-144.15;0.00;65763.66;10361572;28;20047;-68
2020/12/09 18:11:40;;;;;;;119.70;80.45;;;;;;;-144.15;0.00;65763.66;10363202;28;20048;-67
2020/12/09 18:16:38;;;;;;;55.38;35.63;;;;;;;-144.15;0.00;65763.66;10362390;28;20589;-66
2020/12/09 18:21:38;;;;;;;139.45;80.90;;;;;;;-144.15;0.00;65763.66;10362828;28;20060;-67
2020/12/09 18:26:36;;;;;;;64.07;46.35;;;;;;;-144.15;0.00;65763.66;10362495;28;20047;-66
2020/12/09 18:31:35;;;;;;;106.63;66.07;;;;;;;-144.15;0.00;65763.66;10362247;28;20503;-67
2020/12/09 18:36:33;;;;;;;104.72;62.20;;;;;;;-144.15;0.00;65763.66;10361509;28;20079;-67
2020/12/09 18:41:40;;;;;;;30.20;21.35;;;;;;;-144.15;0.00;65763.66;10361860;28;20066;-67
2020/12/09 18:46:39;;;;;;;61.50;38.22;;;;;;;-144.15;0.00;65763.66;10361773;28;20512;-67
2020/12/09 18:51:38;;;;;;;112.85;70.90;;;;;;;-144.15;0.00;65763.66;10360584;28;20040;-67
2020/12/09 18:56:36;;;;;;;49.20;30.88;;;;;;;-144.15;0.00;65763.66;10361158;28;20079;-68
2020/12/09 19:01:34;;;;;;;57.72;38.55;;;;;;;-144.15;0.00;65763.66;10360819;28;20063;-67
2020/12/09 19:06:33;;;;;;;35.53;23.70;;;;;;;-144.15;0.00;65763.66;10360251;28;20044;-67
2020/12/09 19:11:33;;;;;;;50.05;35.72;;;;;;;-144.15;0.00;65763.66;10359851;28;20474;-67
2020/12/09 19:16:31;;;;;;;50.55;33.60;;;;;;;-144.15;0.00;65763.66;10360458;28;20462;-67
2020/12/09 19:21:29;;;;;;;31.88;22.63;;;;;;;-144.15;0.00;65763.66;10359581;28;20086;-67
2020/12/09 19:26:29;;;;;;;32.55;24.30;;;;;;;-144.15;0.00;65763.66;10359946;28;20520;-67
2020/12/09 19:31:30;;;;;;;23.98;18.13;;;;;;;-144.15;0.00;65763.66;10359566;28;20044;-68
2020/12/09 19:36:29;;;;;;;19.27;13.82;;;;;;;-144.15;0.00;65763.66;10359625;28;20068;-67
2020/12/09 19:41:27;;;;;;;22.83;16.40;;;;;;;-144.15;0.00;65763.66;10358909;28;20082;-68
2020/12/09 19:46:27;;;;;;;29.50;18.13;;;;;;;-144.15;0.00;65763.66;10359200;28;20515;-68
2020/12/09 19:51:29;;;;;;;18.77;13.30;;;;;;;-144.15;0.00;65763.66;10359193;28;20067;-68
2020/12/09 19:56:29;;;;;;;19.90;13.38;;;;;;;-144.15;0.00;65763.66;10357954;28;20078;-68
2020/12/09 20:01:28;;;;;;;25.08;17.92;;;;;;;-144.15;0.00;65763.66;10359058;28;20055;-68
2020/12/09 20:06:28;;;;;;;17.58;12.75;;;;;;;-144.15;0.00;65763.66;10349713;28;20064;-67
2020/12/09 20:11:28;;;;;;;14.82;10.88;;;;;;;-144.15;0.00;65763.66;10341297;28;20523;-67
2020/12/09 20:16:31;;;;;;;15.60;10.75;;;;;;;-144.15;0.00;65763.66;10356865;28;20071;-68
2020/12/09 20:21:32;;;;;;;17.98;12.82;;;;;;;-144.15;0.00;65763.66;10358365;28;20540;-68
2020/12/09 20:26:33;;;;;;;12.13;9.45;;;;;;;-144.15;0.00;65763.66;10357431;28;20501;-68
2020/12/09 20:31:32;;;;;;;15.30;12.52;;;;;;;-144.15;0.00;65763.66;10356945;28;20525;-68
2020/12/09 20:36:32;;;;;;;19.60;14.57;;;;;;;-144.15;0.00;65763.66;10355469;28;20489;-68
2020/12/09 20:41:34;;;;;;;14.70;11.95;;;;;;;-144.15;0.00;65763.66;10356496;28;20079;-68
2020/12/09 20:46:33;;;;;;;23.80;16.90;;;;;;;-144.15;0.00;65763.66;10356854;28;20064;-68
2020/12/09 20:51:36;;;;;;;27.55;17.63;;;;;;;-144.15;0.00;65763.66;10357374;28;20063;-68
2020/12/09 20:56:35;;;;;;;21.13;14.50;;;;;;;-144.15;0.00;65763.66;10357130;28;20079;-68
2020/12/09 21:01:37;;;;;;;14.48;11.02;;;;;;;-144.15;0.00;65763.66;10357269;28;20240;-66
2020/12/09 21:06:37;;;;;;;19.25;14.48;;;;;;;-144.15;0.00;65763.66;10357161;28;20055;-68
2020/12/09 21:11:36;;;;;;;14.27;11.60;;;;;;;-144.15;0.00;65763.66;10357370;28;20433;-68
2020/12/09 21:16:34;;;;;;;18.70;13.18;;;;;;;-144.15;0.00;65763.66;10356470;28;20513;-67
2020/12/09 21:21:32;;;;;;;14.65;10.30;;;;;;;-144.15;0.00;65763.66;10356857;28;20047;-67
2020/12/09 21:26:36;;;;;;;22.85;15.88;;;;;;;-144.15;0.00;65763.66;10357040;28;20056;-68
2020/12/09 21:31:34;;;;;;;20.50;13.35;;;;;;;-144.15;0.00;65763.66;10356307;28;20075;-67
2020/12/09 21:36:33;;;;;;;14.32;10.65;;;;;;;-144.15;0.00;65763.66;10360827;28;20456;-67
2020/12/09 21:41:32;;;;;;;13.20;9.57;;;;;;;-144.15;0.00;65763.66;10364394;28;20040;-67
2020/12/09 21:46:36;;;;;;;17.02;10.50;;;;;;;-144.15;0.00;65763.66;10364084;28;20055;-68
2020/12/09 21:51:35;;;;;;;13.27;9.63;;;;;;;-144.15;0.00;65763.66;10363485;28;20044;-67
2020/12/09 21:56:37;;;;;;;16.80;11.32;;;;;;;-144.15;0.00;65763.66;10363617;28;20086;-67
2020/12/09 22:01:37;;;;;;;14.88;10.25;;;;;;;-144.15;0.00;65763.66;10363614;28;20440;-68
2020/12/09 22:06:35;;;;;;;17.85;10.73;;;;;;;-144.15;0.00;65763.66;10363272;28;20519;-68
2020/12/09 22:11:32;;;;;;;14.65;10.05;;;;;;;-144.15;0.00;65763.66;10363476;28;20088;-67
2020/12/09 22:16:31;;;;;;;29.40;19.85;;;;;;;-144.15;0.00;65763.66;10363037;28;20079;-67
2020/12/09 22:21:29;;;;;;;20.80;12.00;;;;;;;-144.15;0.00;65763.66;10362255;28;20067;-68
2020/12/09 22:26:27;;;;;;;21.73;11.25;;;;;;;-144.15;0.00;65763.66;10362584;28;20048;-68